Etusivu
METAR-TAF:

METAR-TAF

Lentoasemat :

Huesca, Espanja

Leveyspiiri: 42-04-32N, Pituuspiiri: 0-18-58W, korkeus merenpinnasta: 539 m

Tämänhetkinen sää

Tämä raportti tehtiin 22 minuuttia sitten, kello 03.30 UTC
Tuuli 9 kn lännestä/lounaasta
Lämpötila 6°C
Kosteus 65%
Ilmanpaine 1021 hPa
Näkyvyys 10 km tai enemmän
ei pilviä alle 1500 m:ssä eikä cumulonimbus-pilviä

METAR: LEHC 190330Z AUTO 25009KT CAVOK 06/M00 Q1021

Aika: 04:52 (03:52 UTC)

Sääennuste

Tämä raportti tehtiin 1 tunti ja 52 minuuttia sitten, kello 02.00 UTC
Ennuste voimassa 19. päivästä klo 03 UTC - 20. päivään klo 03 UTC
Tuuli 10 kn lännestä
Näkyvyys 10 km tai enemmän
Muutamia pilviä 4000 ft:n korkeudessa
Tulossa
19. päivästä klo 10 UTC - 19. päivään klo 12 UTC
Tuuli 4 kn eri suunnista
Ajoittain
19. päivästä klo 14 UTC - 19. päivään klo 20 UTC
Tuuli 12 kn koillisesta

TAF: LEHC 190200Z 1903/2003 28010KT 9999 FEW040 TX17/1914Z TN03/1906Z BECMG 1910/1912 VRB04KT TEMPO 1914/1920 05012KT

Säähavainnot ja -ennusteet yli 4000 lentoasemalta (METAR- ja TAF-raportit).

Käytössä olevat sääasemat on merkitty karttaan keltaisilla ja punaisilla pisteillä.

Aseta hiiri pisteen päälle nähdäksesi sääaseman nimen.

Klikkaa sitten nähdäksesi säähavainnot ja -ennusteet.

Kartan vaihtaminen: klikkaa mustalla rastilla varustettuja vihreitä pisteitä, niin voit zoomata sisään; viivalla varustettua vihreää pistettä, niin voit zoomata ulos tai vihreitä nuolia, niin pääset viereisille kartoille.


METAR-TAF: